sensor_id;sensor_type;location;lat;lon;timestamp;P1;durP1;ratioP1;P2;durP2;ratioP2
30458;SDS011;74163;50.912;6.918;2024-01-30T00:00:24;17.42;;;13.20;;
30458;SDS011;74163;50.912;6.918;2024-01-30T00:00:57;16.75;;;13.07;;
30458;SDS011;74163;50.912;6.918;2024-01-30T00:01:28;16.67;;;13.18;;
30458;SDS011;74163;50.912;6.918;2024-01-30T00:02:00;17.77;;;13.88;;
30458;SDS011;74163;50.912;6.918;2024-01-30T00:02:32;14.77;;;13.17;;
30458;SDS011;74163;50.912;6.918;2024-01-30T00:03:04;14.73;;;12.88;;
30458;SDS011;74163;50.912;6.918;2024-01-30T00:03:36;16.60;;;13.00;;
30458;SDS011;74163;50.912;6.918;2024-01-30T00:04:08;16.70;;;13.18;;
30458;SDS011;74163;50.912;6.918;2024-01-30T00:04:40;15.48;;;12.75;;
30458;SDS011;74163;50.912;6.918;2024-01-30T00:05:12;15.85;;;12.98;;
30458;SDS011;74163;50.912;6.918;2024-01-30T00:05:43;16.25;;;13.02;;
30458;SDS011;74163;50.912;6.918;2024-01-30T00:06:17;17.05;;;13.52;;
30458;SDS011;74163;50.912;6.918;2024-01-30T00:06:50;18.58;;;14.10;;
30458;SDS011;74163;50.912;6.918;2024-01-30T00:07:22;16.70;;;13.60;;
30458;SDS011;74163;50.912;6.918;2024-01-30T00:07:54;18.48;;;13.27;;
30458;SDS011;74163;50.912;6.918;2024-01-30T00:08:26;17.67;;;14.10;;
30458;SDS011;74163;50.912;6.918;2024-01-30T00:08:59;15.70;;;13.40;;
30458;SDS011;74163;50.912;6.918;2024-01-30T00:09:31;17.15;;;13.10;;
30458;SDS011;74163;50.912;6.918;2024-01-30T00:10:03;16.33;;;12.73;;
30458;SDS011;74163;50.912;6.918;2024-01-30T00:10:36;15.00;;;13.02;;
30458;SDS011;74163;50.912;6.918;2024-01-30T00:11:08;18.33;;;13.70;;
30458;SDS011;74163;50.912;6.918;2024-01-30T00:11:40;17.20;;;13.65;;
30458;SDS011;74163;50.912;6.918;2024-01-30T00:12:12;16.85;;;13.38;;
30458;SDS011;74163;50.912;6.918;2024-01-30T00:12:44;17.00;;;12.90;;
30458;SDS011;74163;50.912;6.918;2024-01-30T00:13:16;16.13;;;13.35;;
30458;SDS011;74163;50.912;6.918;2024-01-30T00:13:48;17.35;;;13.32;;
30458;SDS011;74163;50.912;6.918;2024-01-30T00:14:19;16.95;;;13.23;;
30458;SDS011;74163;50.912;6.918;2024-01-30T00:14:51;16.58;;;13.07;;
30458;SDS011;74163;50.912;6.918;2024-01-30T00:15:25;15.15;;;12.88;;
30458;SDS011;74163;50.912;6.918;2024-01-30T00:15:57;16.23;;;13.43;;
30458;SDS011;74163;50.912;6.918;2024-01-30T00:16:29;17.17;;;13.50;;
30458;SDS011;74163;50.912;6.918;2024-01-30T00:17:01;17.50;;;13.68;;
30458;SDS011;74163;50.912;6.918;2024-01-30T00:17:33;17.95;;;13.80;;
30458;SDS011;74163;50.912;6.918;2024-01-30T00:18:04;19.45;;;14.40;;
30458;SDS011;74163;50.912;6.918;2024-01-30T00:18:36;15.52;;;13.40;;
30458;SDS011;74163;50.912;6.918;2024-01-30T00:19:08;16.85;;;13.65;;
30458;SDS011;74163;50.912;6.918;2024-01-30T00:19:40;17.02;;;13.43;;
30458;SDS011;74163;50.912;6.918;2024-01-30T00:20:12;16.23;;;13.15;;
30458;SDS011;74163;50.912;6.918;2024-01-30T00:20:44;16.88;;;13.38;;
30458;SDS011;74163;50.912;6.918;2024-01-30T00:21:16;16.20;;;12.73;;
30458;SDS011;74163;50.912;6.918;2024-01-30T00:21:48;17.80;;;13.45;;
30458;SDS011;74163;50.912;6.918;2024-01-30T00:22:20;17.05;;;13.23;;
30458;SDS011;74163;50.912;6.918;2024-01-30T00:22:52;17.90;;;13.95;;
30458;SDS011;74163;50.912;6.918;2024-01-30T00:23:23;15.93;;;12.95;;
30458;SDS011;74163;50.912;6.918;2024-01-30T00:23:55;17.52;;;13.30;;
30458;SDS011;74163;50.912;6.918;2024-01-30T00:24:28;18.17;;;13.33;;
30458;SDS011;74163;50.912;6.918;2024-01-30T00:25:00;16.58;;;13.35;;
30458;SDS011;74163;50.912;6.918;2024-01-30T00:25:32;20.15;;;14.00;;
30458;SDS011;74163;50.912;6.918;2024-01-30T00:26:04;18.38;;;14.30;;
30458;SDS011;74163;50.912;6.918;2024-01-30T00:26:36;16.63;;;13.50;;
30458;SDS011;74163;50.912;6.918;2024-01-30T00:27:08;18.67;;;14.52;;
30458;SDS011;74163;50.912;6.918;2024-01-30T00:27:40;16.65;;;13.65;;
30458;SDS011;74163;50.912;6.918;2024-01-30T00:28:11;17.58;;;14.18;;
30458;SDS011;74163;50.912;6.918;2024-01-30T00:28:43;17.52;;;13.77;;
30458;SDS011;74163;50.912;6.918;2024-01-30T00:29:15;17.17;;;13.35;;
30458;SDS011;74163;50.912;6.918;2024-01-30T00:29:47;17.10;;;13.48;;
30458;SDS011;74163;50.912;6.918;2024-01-30T00:30:19;16.13;;;13.20;;
30458;SDS011;74163;50.912;6.918;2024-01-30T00:30:51;16.90;;;14.07;;
30458;SDS011;74163;50.912;6.918;2024-01-30T00:31:23;17.85;;;12.90;;
30458;SDS011;74163;50.912;6.918;2024-01-30T00:31:55;16.65;;;13.52;;
30458;SDS011;74163;50.912;6.918;2024-01-30T00:32:27;16.83;;;13.02;;
30458;SDS011;74163;50.912;6.918;2024-01-30T00:32:59;17.23;;;13.60;;
30458;SDS011;74163;50.912;6.918;2024-01-30T00:33:30;15.52;;;12.88;;
30458;SDS011;74163;50.912;6.918;2024-01-30T00:34:02;14.57;;;12.43;;
30458;SDS011;74163;50.912;6.918;2024-01-30T00:34:34;17.10;;;13.32;;
30458;SDS011;74163;50.912;6.918;2024-01-30T00:35:06;17.08;;;13.15;;
30458;SDS011;74163;50.912;6.918;2024-01-30T00:35:38;16.70;;;13.10;;
30458;SDS011;74163;50.912;6.918;2024-01-30T00:36:10;18.25;;;14.25;;
30458;SDS011;74163;50.912;6.918;2024-01-30T00:36:42;15.55;;;13.35;;
30458;SDS011;74163;50.912;6.918;2024-01-30T00:37:14;18.50;;;13.88;;
30458;SDS011;74163;50.912;6.918;2024-01-30T00:37:46;18.80;;;13.10;;
30458;SDS011;74163;50.912;6.918;2024-01-30T00:38:18;18.40;;;13.60;;
30458;SDS011;74163;50.912;6.918;2024-01-30T00:38:49;16.20;;;13.60;;
30458;SDS011;74163;50.912;6.918;2024-01-30T00:39:21;17.33;;;13.68;;
30458;SDS011;74163;50.912;6.918;2024-01-30T00:39:54;16.42;;;13.25;;
30458;SDS011;74163;50.912;6.918;2024-01-30T00:40:26;16.38;;;13.32;;
30458;SDS011;74163;50.912;6.918;2024-01-30T00:40:58;17.75;;;13.90;;
30458;SDS011;74163;50.912;6.918;2024-01-30T00:41:30;16.30;;;13.35;;
30458;SDS011;74163;50.912;6.918;2024-01-30T00:42:02;17.10;;;13.03;;
30458;SDS011;74163;50.912;6.918;2024-01-30T00:42:34;17.13;;;13.63;;
30458;SDS011;74163;50.912;6.918;2024-01-30T00:43:05;16.98;;;13.43;;
30458;SDS011;74163;50.912;6.918;2024-01-30T00:43:37;15.60;;;13.30;;
30458;SDS011;74163;50.912;6.918;2024-01-30T00:44:09;16.70;;;13.38;;
30458;SDS011;74163;50.912;6.918;2024-01-30T00:44:41;17.90;;;13.98;;
30458;SDS011;74163;50.912;6.918;2024-01-30T00:45:13;17.40;;;13.80;;
30458;SDS011;74163;50.912;6.918;2024-01-30T00:45:45;18.35;;;14.07;;
30458;SDS011;74163;50.912;6.918;2024-01-30T00:46:17;17.77;;;13.40;;
30458;SDS011;74163;50.912;6.918;2024-01-30T00:46:49;16.27;;;13.35;;
30458;SDS011;74163;50.912;6.918;2024-01-30T00:47:21;18.10;;;13.40;;
30458;SDS011;74163;50.912;6.918;2024-01-30T00:47:53;17.45;;;13.68;;
30458;SDS011;74163;50.912;6.918;2024-01-30T00:48:24;15.55;;;13.85;;
30458;SDS011;74163;50.912;6.918;2024-01-30T00:48:56;15.07;;;13.40;;
30458;SDS011;74163;50.912;6.918;2024-01-30T00:49:28;16.45;;;14.07;;
30458;SDS011;74163;50.912;6.918;2024-01-30T00:50:00;16.42;;;14.13;;
30458;SDS011;74163;50.912;6.918;2024-01-30T00:50:32;17.73;;;13.52;;
30458;SDS011;74163;50.912;6.918;2024-01-30T00:51:04;17.17;;;14.10;;
30458;SDS011;74163;50.912;6.918;2024-01-30T00:51:36;18.40;;;13.90;;
30458;SDS011;74163;50.912;6.918;2024-01-30T00:52:08;16.15;;;13.82;;
30458;SDS011;74163;50.912;6.918;2024-01-30T00:52:40;16.63;;;14.07;;
30458;SDS011;74163;50.912;6.918;2024-01-30T00:53:12;18.27;;;14.00;;
30458;SDS011;74163;50.912;6.918;2024-01-30T00:53:44;17.48;;;13.38;;
30458;SDS011;74163;50.912;6.918;2024-01-30T00:54:16;17.48;;;13.50;;
30458;SDS011;74163;50.912;6.918;2024-01-30T00:54:48;18.33;;;13.68;;
30458;SDS011;74163;50.912;6.918;2024-01-30T00:55:21;19.30;;;14.48;;
30458;SDS011;74163;50.912;6.918;2024-01-30T00:55:53;17.80;;;14.10;;
30458;SDS011;74163;50.912;6.918;2024-01-30T00:56:25;17.15;;;13.55;;
30458;SDS011;74163;50.912;6.918;2024-01-30T00:56:57;18.38;;;14.55;;
30458;SDS011;74163;50.912;6.918;2024-01-30T00:57:29;18.40;;;14.00;;
30458;SDS011;74163;50.912;6.918;2024-01-30T00:58:01;17.38;;;13.70;;
30458;SDS011;74163;50.912;6.918;2024-01-30T00:58:32;18.98;;;14.65;;
30458;SDS011;74163;50.912;6.918;2024-01-30T00:59:04;18.10;;;14.40;;
30458;SDS011;74163;50.912;6.918;2024-01-30T00:59:37;18.90;;;13.50;;
30458;SDS011;74163;50.912;6.918;2024-01-30T01:00:09;16.50;;;14.20;;
30458;SDS011;74163;50.912;6.918;2024-01-30T01:00:42;18.73;;;14.65;;
30458;SDS011;74163;50.912;6.918;2024-01-30T01:01:13;18.10;;;13.98;;
30458;SDS011;74163;50.912;6.918;2024-01-30T01:01:46;17.52;;;14.48;;
30458;SDS011;74163;50.912;6.918;2024-01-30T01:02:19;18.10;;;14.25;;
30458;SDS011;74163;50.912;6.918;2024-01-30T01:02:51;17.27;;;14.30;;
30458;SDS011;74163;50.912;6.918;2024-01-30T01:03:23;20.45;;;14.50;;
30458;SDS011;74163;50.912;6.918;2024-01-30T01:03:55;16.77;;;13.30;;
30458;SDS011;74163;50.912;6.918;2024-01-30T01:04:27;17.35;;;13.07;;
30458;SDS011;74163;50.912;6.918;2024-01-30T01:04:59;18.60;;;13.85;;
30458;SDS011;74163;50.912;6.918;2024-01-30T01:05:31;17.83;;;14.23;;
30458;SDS011;74163;50.912;6.918;2024-01-30T01:06:03;17.92;;;14.07;;
30458;SDS011;74163;50.912;6.918;2024-01-30T01:06:35;17.57;;;14.17;;
30458;SDS011;74163;50.912;6.918;2024-01-30T01:07:07;18.42;;;14.32;;
30458;SDS011;74163;50.912;6.918;2024-01-30T01:07:39;17.65;;;13.70;;
30458;SDS011;74163;50.912;6.918;2024-01-30T01:08:11;18.08;;;14.55;;
30458;SDS011;74163;50.912;6.918;2024-01-30T01:08:43;18.08;;;13.52;;
30458;SDS011;74163;50.912;6.918;2024-01-30T01:09:14;17.45;;;13.70;;
30458;SDS011;74163;50.912;6.918;2024-01-30T01:09:46;17.90;;;13.98;;
30458;SDS011;74163;50.912;6.918;2024-01-30T01:10:18;16.48;;;13.05;;
30458;SDS011;74163;50.912;6.918;2024-01-30T01:10:52;19.40;;;14.05;;
30458;SDS011;74163;50.912;6.918;2024-01-30T01:11:23;18.58;;;14.25;;
30458;SDS011;74163;50.912;6.918;2024-01-30T01:11:55;16.95;;;13.27;;
30458;SDS011;74163;50.912;6.918;2024-01-30T01:12:27;17.30;;;13.35;;
30458;SDS011;74163;50.912;6.918;2024-01-30T01:12:59;18.48;;;13.02;;
30458;SDS011;74163;50.912;6.918;2024-01-30T01:13:31;19.63;;;13.88;;
30458;SDS011;74163;50.912;6.918;2024-01-30T01:14:03;17.50;;;13.82;;
30458;SDS011;74163;50.912;6.918;2024-01-30T01:14:35;18.42;;;13.80;;
30458;SDS011;74163;50.912;6.918;2024-01-30T01:15:07;18.80;;;13.85;;
30458;SDS011;74163;50.912;6.918;2024-01-30T01:15:40;18.67;;;13.73;;
30458;SDS011;74163;50.912;6.918;2024-01-30T01:16:12;17.52;;;13.27;;
30458;SDS011;74163;50.912;6.918;2024-01-30T01:16:43;19.30;;;13.25;;
30458;SDS011;74163;50.912;6.918;2024-01-30T01:17:15;17.38;;;13.40;;
30458;SDS011;74163;50.912;6.918;2024-01-30T01:17:47;16.95;;;13.52;;
30458;SDS011;74163;50.912;6.918;2024-01-30T01:18:19;17.45;;;13.60;;
30458;SDS011;74163;50.912;6.918;2024-01-30T01:18:51;16.70;;;13.85;;
30458;SDS011;74163;50.912;6.918;2024-01-30T01:19:22;18.10;;;13.95;;
30458;SDS011;74163;50.912;6.918;2024-01-30T01:19:54;16.73;;;13.57;;
30458;SDS011;74163;50.912;6.918;2024-01-30T01:20:26;17.67;;;12.55;;
30458;SDS011;74163;50.912;6.918;2024-01-30T01:20:58;17.95;;;13.93;;
30458;SDS011;74163;50.912;6.918;2024-01-30T01:21:30;17.95;;;13.13;;
30458;SDS011;74163;50.912;6.918;2024-01-30T01:22:02;19.17;;;14.35;;
30458;SDS011;74163;50.912;6.918;2024-01-30T01:22:34;17.55;;;13.70;;
30458;SDS011;74163;50.912;6.918;2024-01-30T01:23:06;17.00;;;13.25;;
30458;SDS011;74163;50.912;6.918;2024-01-30T01:23:38;17.20;;;12.60;;
30458;SDS011;74163;50.912;6.918;2024-01-30T01:24:10;17.42;;;12.85;;
30458;SDS011;74163;50.912;6.918;2024-01-30T01:24:42;19.02;;;13.40;;
30458;SDS011;74163;50.912;6.918;2024-01-30T01:25:13;16.48;;;13.15;;
30458;SDS011;74163;50.912;6.918;2024-01-30T01:25:47;17.95;;;13.70;;
30458;SDS011;74163;50.912;6.918;2024-01-30T01:26:19;18.30;;;13.75;;
30458;SDS011;74163;50.912;6.918;2024-01-30T01:26:50;15.70;;;12.98;;
30458;SDS011;74163;50.912;6.918;2024-01-30T01:27:22;16.17;;;13.23;;
30458;SDS011;74163;50.912;6.918;2024-01-30T01:27:54;15.88;;;12.15;;
30458;SDS011;74163;50.912;6.918;2024-01-30T01:28:26;16.10;;;13.05;;
30458;SDS011;74163;50.912;6.918;2024-01-30T01:28:58;15.88;;;13.23;;
30458;SDS011;74163;50.912;6.918;2024-01-30T01:29:30;14.95;;;12.82;;
30458;SDS011;74163;50.912;6.918;2024-01-30T01:30:01;17.80;;;13.52;;
30458;SDS011;74163;50.912;6.918;2024-01-30T01:30:33;16.05;;;12.73;;
30458;SDS011;74163;50.912;6.918;2024-01-30T01:31:05;18.30;;;12.90;;
30458;SDS011;74163;50.912;6.918;2024-01-30T01:31:37;17.45;;;13.20;;
30458;SDS011;74163;50.912;6.918;2024-01-30T01:32:10;18.48;;;13.57;;
30458;SDS011;74163;50.912;6.918;2024-01-30T01:32:41;17.10;;;12.98;;
30458;SDS011;74163;50.912;6.918;2024-01-30T01:33:13;15.27;;;12.38;;
30458;SDS011;74163;50.912;6.918;2024-01-30T01:33:46;16.50;;;12.93;;
30458;SDS011;74163;50.912;6.918;2024-01-30T01:34:18;18.92;;;13.13;;
30458;SDS011;74163;50.912;6.918;2024-01-30T01:34:50;17.15;;;13.70;;
30458;SDS011;74163;50.912;6.918;2024-01-30T01:35:22;15.13;;;12.18;;
30458;SDS011;74163;50.912;6.918;2024-01-30T01:35:54;15.50;;;12.00;;
30458;SDS011;74163;50.912;6.918;2024-01-30T01:36:26;17.08;;;12.75;;
30458;SDS011;74163;50.912;6.918;2024-01-30T01:36:58;15.57;;;12.40;;
30458;SDS011;74163;50.912;6.918;2024-01-30T01:37:30;16.67;;;12.57;;
30458;SDS011;74163;50.912;6.918;2024-01-30T01:38:02;17.63;;;12.85;;
30458;SDS011;74163;50.912;6.918;2024-01-30T01:38:33;16.23;;;12.27;;
30458;SDS011;74163;50.912;6.918;2024-01-30T01:39:05;17.23;;;13.05;;
30458;SDS011;74163;50.912;6.918;2024-01-30T01:39:37;15.32;;;12.23;;
30458;SDS011;74163;50.912;6.918;2024-01-30T01:40:09;15.65;;;13.00;;
30458;SDS011;74163;50.912;6.918;2024-01-30T01:40:41;16.85;;;12.60;;
30458;SDS011;74163;50.912;6.918;2024-01-30T01:41:14;15.80;;;13.02;;
30458;SDS011;74163;50.912;6.918;2024-01-30T01:41:46;16.13;;;13.43;;
30458;SDS011;74163;50.912;6.918;2024-01-30T01:42:18;17.58;;;13.38;;
30458;SDS011;74163;50.912;6.918;2024-01-30T01:42:50;15.60;;;12.40;;
30458;SDS011;74163;50.912;6.918;2024-01-30T01:43:23;15.30;;;12.25;;
30458;SDS011;74163;50.912;6.918;2024-01-30T01:43:55;17.50;;;12.52;;
30458;SDS011;74163;50.912;6.918;2024-01-30T01:44:26;16.55;;;12.65;;
30458;SDS011;74163;50.912;6.918;2024-01-30T01:44:58;15.98;;;12.85;;
30458;SDS011;74163;50.912;6.918;2024-01-30T01:45:30;16.35;;;13.02;;
30458;SDS011;74163;50.912;6.918;2024-01-30T01:46:03;15.02;;;12.45;;
30458;SDS011;74163;50.912;6.918;2024-01-30T01:46:35;16.45;;;12.75;;
30458;SDS011;74163;50.912;6.918;2024-01-30T01:47:07;16.38;;;12.88;;
30458;SDS011;74163;50.912;6.918;2024-01-30T01:47:39;15.82;;;12.88;;
30458;SDS011;74163;50.912;6.918;2024-01-30T01:48:11;15.63;;;12.57;;
30458;SDS011;74163;50.912;6.918;2024-01-30T01:48:44;14.32;;;12.23;;
30458;SDS011;74163;50.912;6.918;2024-01-30T01:49:16;15.73;;;12.35;;
30458;SDS011;74163;50.912;6.918;2024-01-30T01:49:48;17.55;;;13.02;;
30458;SDS011;74163;50.912;6.918;2024-01-30T01:50:20;16.92;;;13.00;;
30458;SDS011;74163;50.912;6.918;2024-01-30T01:50:53;16.15;;;12.82;;
30458;SDS011;74163;50.912;6.918;2024-01-30T01:51:26;15.27;;;12.82;;
30458;SDS011;74163;50.912;6.918;2024-01-30T01:51:59;17.23;;;12.50;;
30458;SDS011;74163;50.912;6.918;2024-01-30T01:52:31;16.40;;;11.65;;
30458;SDS011;74163;50.912;6.918;2024-01-30T01:53:03;16.08;;;12.68;;
30458;SDS011;74163;50.912;6.918;2024-01-30T01:53:38;15.63;;;12.52;;
30458;SDS011;74163;50.912;6.918;2024-01-30T01:54:10;16.50;;;12.80;;
30458;SDS011;74163;50.912;6.918;2024-01-30T01:54:43;16.08;;;11.90;;
30458;SDS011;74163;50.912;6.918;2024-01-30T01:55:15;16.15;;;12.27;;
30458;SDS011;74163;50.912;6.918;2024-01-30T01:55:47;15.25;;;12.70;;
30458;SDS011;74163;50.912;6.918;2024-01-30T01:56:21;15.52;;;12.38;;
30458;SDS011;74163;50.912;6.918;2024-01-30T01:56:53;15.95;;;12.57;;
30458;SDS011;74163;50.912;6.918;2024-01-30T01:57:25;15.82;;;12.85;;
30458;SDS011;74163;50.912;6.918;2024-01-30T01:57:57;17.70;;;12.88;;
30458;SDS011;74163;50.912;6.918;2024-01-30T01:58:30;15.32;;;12.65;;
30458;SDS011;74163;50.912;6.918;2024-01-30T01:59:04;15.95;;;12.65;;
30458;SDS011;74163;50.912;6.918;2024-01-30T01:59:37;14.90;;;12.32;;
30458;SDS011;74163;50.912;6.918;2024-01-30T02:00:09;15.55;;;12.23;;
30458;SDS011;74163;50.912;6.918;2024-01-30T02:00:42;16.40;;;12.45;;
30458;SDS011;74163;50.912;6.918;2024-01-30T02:01:14;15.23;;;12.63;;
30458;SDS011;74163;50.912;6.918;2024-01-30T02:01:47;15.88;;;12.32;;
30458;SDS011;74163;50.912;6.918;2024-01-30T02:02:19;16.60;;;12.57;;
30458;SDS011;74163;50.912;6.918;2024-01-30T02:02:53;17.73;;;12.65;;
30458;SDS011;74163;50.912;6.918;2024-01-30T02:03:26;17.48;;;12.82;;
30458;SDS011;74163;50.912;6.918;2024-01-30T02:03:58;16.80;;;13.07;;
30458;SDS011;74163;50.912;6.918;2024-01-30T02:04:31;15.73;;;12.57;;
30458;SDS011;74163;50.912;6.918;2024-01-30T02:05:03;15.73;;;12.95;;
30458;SDS011;74163;50.912;6.918;2024-01-30T02:05:35;15.90;;;12.27;;
30458;SDS011;74163;50.912;6.918;2024-01-30T02:06:08;16.63;;;13.27;;
30458;SDS011;74163;50.912;6.918;2024-01-30T02:06:40;16.90;;;12.73;;
30458;SDS011;74163;50.912;6.918;2024-01-30T02:07:12;16.90;;;12.43;;
30458;SDS011;74163;50.912;6.918;2024-01-30T02:07:44;14.77;;;12.83;;
30458;SDS011;74163;50.912;6.918;2024-01-30T02:08:16;15.32;;;13.07;;
30458;SDS011;74163;50.912;6.918;2024-01-30T02:08:48;17.20;;;13.15;;
30458;SDS011;74163;50.912;6.918;2024-01-30T02:09:20;18.10;;;13.10;;
30458;SDS011;74163;50.912;6.918;2024-01-30T02:09:52;15.32;;;12.05;;
30458;SDS011;74163;50.912;6.918;2024-01-30T02:10:24;13.95;;;12.25;;
30458;SDS011;74163;50.912;6.918;2024-01-30T02:10:56;15.48;;;12.48;;
30458;SDS011;74163;50.912;6.918;2024-01-30T02:11:30;15.02;;;12.57;;
30458;SDS011;74163;50.912;6.918;2024-01-30T02:12:03;16.92;;;12.52;;
30458;SDS011;74163;50.912;6.918;2024-01-30T02:12:35;16.08;;;12.93;;
30458;SDS011;74163;50.912;6.918;2024-01-30T02:13:07;15.07;;;12.43;;
30458;SDS011;74163;50.912;6.918;2024-01-30T02:13:38;14.60;;;12.50;;
30458;SDS011;74163;50.912;6.918;2024-01-30T02:14:12;15.60;;;11.75;;
30458;SDS011;74163;50.912;6.918;2024-01-30T02:14:44;16.70;;;12.43;;
30458;SDS011;74163;50.912;6.918;2024-01-30T02:15:16;15.57;;;12.02;;
30458;SDS011;74163;50.912;6.918;2024-01-30T02:15:49;13.75;;;11.52;;
30458;SDS011;74163;50.912;6.918;2024-01-30T02:16:21;15.43;;;12.73;;
30458;SDS011;74163;50.912;6.918;2024-01-30T02:16:52;15.05;;;12.25;;
30458;SDS011;74163;50.912;6.918;2024-01-30T02:17:24;15.30;;;11.82;;
30458;SDS011;74163;50.912;6.918;2024-01-30T02:17:56;16.50;;;12.45;;
30458;SDS011;74163;50.912;6.918;2024-01-30T02:18:28;16.00;;;12.18;;
30458;SDS011;74163;50.912;6.918;2024-01-30T02:19:00;17.08;;;12.75;;
30458;SDS011;74163;50.912;6.918;2024-01-30T02:19:32;16.65;;;12.80;;
30458;SDS011;74163;50.912;6.918;2024-01-30T02:20:04;16.23;;;12.48;;
30458;SDS011;74163;50.912;6.918;2024-01-30T02:20:36;16.38;;;13.10;;
30458;SDS011;74163;50.912;6.918;2024-01-30T02:21:10;17.10;;;12.68;;
30458;SDS011;74163;50.912;6.918;2024-01-30T02:21:43;16.67;;;12.18;;
30458;SDS011;74163;50.912;6.918;2024-01-30T02:22:16;14.38;;;12.07;;
30458;SDS011;74163;50.912;6.918;2024-01-30T02:22:48;15.73;;;12.70;;
30458;SDS011;74163;50.912;6.918;2024-01-30T02:23:20;15.20;;;11.95;;
30458;SDS011;74163;50.912;6.918;2024-01-30T02:23:54;18.15;;;12.88;;
30458;SDS011;74163;50.912;6.918;2024-01-30T02:24:27;18.35;;;13.30;;
30458;SDS011;74163;50.912;6.918;2024-01-30T02:24:59;16.05;;;12.70;;
30458;SDS011;74163;50.912;6.918;2024-01-30T02:25:31;15.07;;;12.57;;
30458;SDS011;74163;50.912;6.918;2024-01-30T02:26:04;15.57;;;12.68;;
30458;SDS011;74163;50.912;6.918;2024-01-30T02:26:36;16.00;;;12.40;;
30458;SDS011;74163;50.912;6.918;2024-01-30T02:27:07;16.08;;;13.32;;
30458;SDS011;74163;50.912;6.918;2024-01-30T02:27:39;15.40;;;12.32;;
30458;SDS011;74163;50.912;6.918;2024-01-30T02:28:11;15.43;;;11.82;;
30458;SDS011;74163;50.912;6.918;2024-01-30T02:28:44;16.00;;;12.68;;
30458;SDS011;74163;50.912;6.918;2024-01-30T02:29:16;15.60;;;12.23;;
30458;SDS011;74163;50.912;6.918;2024-01-30T02:29:48;16.33;;;12.07;;
30458;SDS011;74163;50.912;6.918;2024-01-30T02:30:20;16.55;;;13.02;;
30458;SDS011;74163;50.912;6.918;2024-01-30T02:30:51;15.57;;;12.05;;
30458;SDS011;74163;50.912;6.918;2024-01-30T02:31:24;16.73;;;12.97;;
30458;SDS011;74163;50.912;6.918;2024-01-30T02:31:56;15.40;;;12.35;;
30458;SDS011;74163;50.912;6.918;2024-01-30T02:32:29;14.80;;;11.57;;
30458;SDS011;74163;50.912;6.918;2024-01-30T02:33:00;15.13;;;12.85;;
30458;SDS011;74163;50.912;6.918;2024-01-30T02:33:32;15.90;;;12.38;;
30458;SDS011;74163;50.912;6.918;2024-01-30T02:34:04;14.15;;;12.23;;
30458;SDS011;74163;50.912;6.918;2024-01-30T02:34:36;16.27;;;11.95;;
30458;SDS011;74163;50.912;6.918;2024-01-30T02:35:08;14.63;;;11.57;;
30458;SDS011;74163;50.912;6.918;2024-01-30T02:35:40;15.90;;;12.25;;
30458;SDS011;74163;50.912;6.918;2024-01-30T02:36:13;16.42;;;12.05;;
30458;SDS011;74163;50.912;6.918;2024-01-30T02:36:45;15.45;;;12.18;;
30458;SDS011;74163;50.912;6.918;2024-01-30T02:37:17;16.27;;;12.85;;
30458;SDS011;74163;50.912;6.918;2024-01-30T02:37:49;15.63;;;12.95;;
30458;SDS011;74163;50.912;6.918;2024-01-30T02:38:21;15.10;;;12.48;;
30458;SDS011;74163;50.912;6.918;2024-01-30T02:38:52;14.88;;;12.65;;
30458;SDS011;74163;50.912;6.918;2024-01-30T02:39:25;15.75;;;12.57;;
30458;SDS011;74163;50.912;6.918;2024-01-30T02:39:57;16.73;;;13.05;;
30458;SDS011;74163;50.912;6.918;2024-01-30T02:40:29;16.48;;;12.55;;
30458;SDS011;74163;50.912;6.918;2024-01-30T02:41:01;15.43;;;12.02;;
30458;SDS011;74163;50.912;6.918;2024-01-30T02:41:33;15.98;;;13.30;;
30458;SDS011;74163;50.912;6.918;2024-01-30T02:42:05;16.15;;;12.25;;
30458;SDS011;74163;50.912;6.918;2024-01-30T02:42:36;15.27;;;12.43;;
30458;SDS011;74163;50.912;6.918;2024-01-30T02:43:08;15.82;;;12.70;;
30458;SDS011;74163;50.912;6.918;2024-01-30T02:43:40;15.95;;;12.18;;
30458;SDS011;74163;50.912;6.918;2024-01-30T02:44:12;16.42;;;12.68;;
30458;SDS011;74163;50.912;6.918;2024-01-30T02:44:44;15.00;;;12.27;;
30458;SDS011;74163;50.912;6.918;2024-01-30T02:45:16;15.90;;;13.20;;
30458;SDS011;74163;50.912;6.918;2024-01-30T02:45:48;14.60;;;12.75;;
30458;SDS011;74163;50.912;6.918;2024-01-30T02:46:20;15.30;;;12.60;;
30458;SDS011;74163;50.912;6.918;2024-01-30T02:46:52;17.05;;;13.07;;
30458;SDS011;74163;50.912;6.918;2024-01-30T02:47:23;15.20;;;12.65;;
30458;SDS011;74163;50.912;6.918;2024-01-30T02:47:55;17.30;;;12.70;;
30458;SDS011;74163;50.912;6.918;2024-01-30T02:48:28;16.50;;;12.93;;
30458;SDS011;74163;50.912;6.918;2024-01-30T02:48:59;16.75;;;13.00;;
30458;SDS011;74163;50.912;6.918;2024-01-30T02:49:31;16.60;;;12.80;;
30458;SDS011;74163;50.912;6.918;2024-01-30T02:50:04;16.48;;;13.05;;
30458;SDS011;74163;50.912;6.918;2024-01-30T02:50:36;15.55;;;12.20;;
30458;SDS011;74163;50.912;6.918;2024-01-30T02:51:08;17.83;;;12.93;;
30458;SDS011;74163;50.912;6.918;2024-01-30T02:51:41;17.15;;;13.05;;
30458;SDS011;74163;50.912;6.918;2024-01-30T02:52:13;16.77;;;12.77;;
30458;SDS011;74163;50.912;6.918;2024-01-30T02:52:45;15.90;;;12.70;;
30458;SDS011;74163;50.912;6.918;2024-01-30T02:53:17;16.48;;;12.25;;
30458;SDS011;74163;50.912;6.918;2024-01-30T02:53:49;15.60;;;12.37;;
30458;SDS011;74163;50.912;6.918;2024-01-30T02:54:21;15.85;;;13.32;;
30458;SDS011;74163;50.912;6.918;2024-01-30T02:54:52;15.10;;;12.30;;
30458;SDS011;74163;50.912;6.918;2024-01-30T02:55:24;16.10;;;12.65;;
30458;SDS011;74163;50.912;6.918;2024-01-30T02:55:56;17.13;;;12.48;;
30458;SDS011;74163;50.912;6.918;2024-01-30T02:56:28;16.00;;;12.43;;
30458;SDS011;74163;50.912;6.918;2024-01-30T02:57:00;16.58;;;12.55;;
30458;SDS011;74163;50.912;6.918;2024-01-30T02:57:32;15.48;;;12.50;;
30458;SDS011;74163;50.912;6.918;2024-01-30T02:58:04;15.23;;;12.13;;
30458;SDS011;74163;50.912;6.918;2024-01-30T02:58:36;17.83;;;12.82;;
30458;SDS011;74163;50.912;6.918;2024-01-30T02:59:07;17.60;;;12.60;;
30458;SDS011;74163;50.912;6.918;2024-01-30T02:59:39;15.77;;;12.50;;
30458;SDS011;74163;50.912;6.918;2024-01-30T03:00:11;15.13;;;12.03;;
30458;SDS011;74163;50.912;6.918;2024-01-30T03:00:44;14.32;;;11.75;;
30458;SDS011;74163;50.912;6.918;2024-01-30T03:01:16;15.50;;;12.27;;
30458;SDS011;74163;50.912;6.918;2024-01-30T03:01:48;15.45;;;11.88;;
30458;SDS011;74163;50.912;6.918;2024-01-30T03:02:20;17.38;;;13.35;;
30458;SDS011;74163;50.912;6.918;2024-01-30T03:02:52;16.75;;;12.88;;
30458;SDS011;74163;50.912;6.918;2024-01-30T03:03:23;15.73;;;12.60;;
30458;SDS011;74163;50.912;6.918;2024-01-30T03:03:55;16.45;;;12.60;;
30458;SDS011;74163;50.912;6.918;2024-01-30T03:04:27;17.83;;;12.75;;
30458;SDS011;74163;50.912;6.918;2024-01-30T03:04:59;17.33;;;12.75;;
30458;SDS011;74163;50.912;6.918;2024-01-30T03:05:31;15.68;;;12.13;;
30458;SDS011;74163;50.912;6.918;2024-01-30T03:06:03;16.40;;;12.70;;
30458;SDS011;74163;50.912;6.918;2024-01-30T03:06:36;18.52;;;12.63;;
30458;SDS011;74163;50.912;6.918;2024-01-30T03:07:11;15.57;;;12.80;;
30458;SDS011;74163;50.912;6.918;2024-01-30T03:07:42;15.15;;;12.20;;